Time;durP1;ratioP1;P1;durP2;ratioP2;P2;SDS_P1;SDS_P2;PMS_P1;PMS_P2;Temp;Humidity;BMP_temperature;BMP_pressure;BME280_temperature;BME280_humidity;BME280_pressure;Samples;Min_cycle;Max_cycle;Signal;HPM_P1;HPM_P2
2023/05/28 00:01:57;;;;;;;;;;;11.80;99.90;;;;;;5074162;28;19925;-79
2023/05/28 00:04:24;;;;;;;;;;;11.80;99.90;;;;;;5069726;28;19925;-79
2023/05/28 00:06:52;;;;;;;;;;;11.70;99.90;;;;;;5084818;28;20019;-78
2023/05/28 00:09:19;;;;;;;;;;;11.70;99.90;;;;;;5073950;28;20512;-79
2023/05/28 00:11:44;;;;;;;;;;;11.60;99.90;;;;;;5072471;28;19978;-79
2023/05/28 00:14:10;;;;;;;;;;;11.60;99.90;;;;;;5040874;28;19925;-79
2023/05/28 00:16:37;;;;;;;;;;;11.60;99.90;;;;;;5072653;28;19925;-79
2023/05/28 00:19:03;;;;;;;;;;;11.50;99.90;;;;;;5057454;28;19932;-79
2023/05/28 00:21:28;;;;;;;;;;;11.50;99.90;;;;;;5056870;28;19956;-79
2023/05/28 00:23:54;;;;;;;;;;;11.50;99.90;;;;;;5040067;28;19955;-79
2023/05/28 00:26:19;;;;;;;;;;;11.50;99.90;;;;;;5037752;28;20394;-79
2023/05/28 00:28:45;;;;;;;;;;;11.40;99.90;;;;;;5036490;28;19925;-79
2023/05/28 00:31:11;;;;;;;;;;;11.40;99.90;;;;;;5055708;28;19936;-79
2023/05/28 00:33:37;;;;;;;;;;;11.30;99.90;;;;;;5039302;28;19924;-79
2023/05/28 00:36:03;;;;;;;;;;;11.20;99.90;;;;;;5056736;28;19984;-79
2023/05/28 00:38:28;;;;;;;;;;;11.20;99.90;;;;;;5073064;28;19925;-79
2023/05/28 00:40:57;;;;;;;;;;;11.10;99.90;;;;;;5073007;28;20401;-79
2023/05/28 00:43:22;;;;;;;;;;;11.00;99.90;;;;;;5040763;28;19936;-79
2023/05/28 00:45:50;;;;;;;;;;;11.00;99.90;;;;;;5055554;28;19925;-79
2023/05/28 00:48:16;;;;;;;;;;;11.00;99.90;;;;;;5040504;28;19925;-79
2023/05/28 00:50:42;;;;;;;;;;;11.00;99.90;;;;;;5039151;28;19929;-80
2023/05/28 00:53:08;;;;;;;;;;;10.90;99.90;;;;;;5056707;28;19931;-79
2023/05/28 00:55:34;;;;;;;;;;;10.90;99.90;;;;;;5059358;28;20004;-79
2023/05/28 00:58:05;;;;;;;;;;;10.90;99.90;;;;;;5043445;28;19963;-79
2023/05/28 01:00:35;;;;;;;;;;;10.90;99.90;;;;;;5060212;28;19936;-79
2023/05/28 01:03:01;;;;;;;;;;;10.80;99.90;;;;;;5075910;28;20003;-79
2023/05/28 01:05:26;;;;;;;;;;;10.80;99.90;;;;;;5064141;28;19929;-79
2023/05/28 01:07:52;;;;;;;;;;;10.80;99.90;;;;;;5062534;28;19929;-79
2023/05/28 01:10:18;;;;;;;;;;;10.80;99.90;;;;;;5076779;28;19925;-79
2023/05/28 01:12:44;;;;;;;;;;;10.80;99.90;;;;;;5071909;28;19928;-79
2023/05/28 01:15:09;;;;;;;;;;;10.70;99.90;;;;;;5062931;28;19947;-80
2023/05/28 01:17:36;;;;;;;;;;;10.80;99.90;;;;;;5063831;28;19931;-79
2023/05/28 01:20:05;;;;;;;;;;;10.70;99.90;;;;;;5076249;28;19924;-79
2023/05/28 01:22:33;;;;;;;;;;;10.70;99.90;;;;;;5065159;28;19947;-79
2023/05/28 01:25:00;;;;;;;;;;;10.70;99.90;;;;;;5077302;28;19931;-80
2023/05/28 01:27:26;;;;;;;;;;;10.70;99.90;;;;;;5064438;28;19928;-80
2023/05/28 01:29:51;;;;;;;;;;;10.70;99.90;;;;;;5077560;28;20059;-79
2023/05/28 01:32:17;;;;;;;;;;;10.70;99.90;;;;;;5096547;28;19987;-79
2023/05/28 01:34:43;;;;;;;;;;;10.80;99.90;;;;;;5077854;28;19936;-80
2023/05/28 01:37:09;;;;;;;;;;;10.80;99.90;;;;;;5075435;28;20001;-80
2023/05/28 01:39:39;;;;;;;;;;;10.70;99.90;;;;;;5062974;28;19987;-79
2023/05/28 01:42:05;;;;;;;;;;;10.80;99.90;;;;;;5061713;28;19924;-79
2023/05/28 01:44:31;;;;;;;;;;;10.80;99.90;;;;;;5043347;28;19925;-80
2023/05/28 01:46:57;;;;;;;;;;;10.80;99.90;;;;;;5071456;28;19924;-80
2023/05/28 01:49:22;;;;;;;;;;;10.80;99.90;;;;;;5045769;28;19925;-79
2023/05/28 01:51:50;;;;;;;;;;;10.80;99.90;;;;;;5046733;28;19974;-80
2023/05/28 01:54:15;;;;;;;;;;;10.80;99.90;;;;;;5061866;28;19924;-80
2023/05/28 01:56:41;;;;;;;;;;;10.70;99.90;;;;;;5063321;28;20007;-80
2023/05/28 01:59:06;;;;;;;;;;;10.70;99.90;;;;;;5061437;28;19931;-80
2023/05/28 02:01:36;;;;;;;;;;;10.70;99.90;;;;;;5076473;28;19935;-80
2023/05/28 02:04:02;;;;;;;;;;;10.70;99.90;;;;;;5071672;28;19968;-80
2023/05/28 02:06:30;;;;;;;;;;;10.70;99.90;;;;;;5078447;28;19928;-80
2023/05/28 02:08:56;;;;;;;;;;;10.70;99.90;;;;;;5062393;28;19928;-79
2023/05/28 02:11:22;;;;;;;;;;;10.60;99.90;;;;;;5061428;28;19986;-80
2023/05/28 02:13:48;;;;;;;;;;;10.60;99.90;;;;;;5076538;28;19988;-80
2023/05/28 02:16:17;;;;;;;;;;;10.70;99.90;;;;;;5073204;28;20019;-79
2023/05/28 02:18:46;;;;;;;;;;;10.70;99.90;;;;;;5079217;28;19964;-79
2023/05/28 02:21:12;;;;;;;;;;;10.70;99.90;;;;;;5078202;28;19938;-79
2023/05/28 02:23:40;;;;;;;;;;;10.70;99.90;;;;;;5078682;28;19939;-80
2023/05/28 02:26:06;;;;;;;;;;;10.80;99.90;;;;;;5062440;28;19980;-80
2023/05/28 02:28:31;;;;;;;;;;;10.80;99.90;;;;;;5094701;28;19935;-79
2023/05/28 02:30:57;;;;;;;;;;;10.80;99.90;;;;;;5079320;28;19924;-80
2023/05/28 02:33:22;;;;;;;;;;;10.80;99.90;;;;;;5094179;28;19925;-79
2023/05/28 02:35:48;;;;;;;;;;;10.80;99.90;;;;;;5062251;28;19987;-79
2023/05/28 02:38:14;;;;;;;;;;;10.90;99.90;;;;;;5060647;28;19935;-79
2023/05/28 02:40:39;;;;;;;;;;;10.90;99.90;;;;;;5078189;28;19924;-79
2023/05/28 02:43:05;;;;;;;;;;;10.90;99.90;;;;;;5062028;28;20015;-79
2023/05/28 02:45:30;;;;;;;;;;;10.90;99.90;;;;;;5075181;28;20386;-79
2023/05/28 02:47:56;;;;;;;;;;;10.90;99.90;;;;;;5078843;28;20075;-79
2023/05/28 02:50:21;;;;;;;;;;;10.90;99.90;;;;;;5077296;28;19933;-80
2023/05/28 02:52:47;;;;;;;;;;;10.90;99.90;;;;;;5061683;28;19924;-79
2023/05/28 02:55:13;;;;;;;;;;;10.90;99.90;;;;;;5073787;28;19976;-80
2023/05/28 02:57:38;;;;;;;;;;;10.90;99.90;;;;;;5074411;28;19924;-79
2023/05/28 03:00:04;;;;;;;;;;;10.90;99.90;;;;;;5078607;28;19944;-79
2023/05/28 03:02:30;;;;;;;;;;;10.90;99.90;;;;;;5060534;28;19932;-79
2023/05/28 03:04:56;;;;;;;;;;;10.90;99.90;;;;;;5061897;28;19925;-79
2023/05/28 03:07:22;;;;;;;;;;;10.90;99.90;;;;;;5059870;28;19928;-79
2023/05/28 03:09:48;;;;;;;;;;;10.80;99.90;;;;;;5061359;28;19967;-79
2023/05/28 03:12:13;;;;;;;;;;;10.80;99.90;;;;;;5073716;28;19925;-79
2023/05/28 03:14:39;;;;;;;;;;;10.90;99.90;;;;;;5108320;28;19964;-79
2023/05/28 03:17:04;;;;;;;;;;;10.80;99.90;;;;;;5073484;28;19932;-80
2023/05/28 03:19:31;;;;;;;;;;;10.80;99.90;;;;;;5088261;28;19933;-80
2023/05/28 03:21:57;;;;;;;;;;;10.80;99.90;;;;;;5045455;28;19931;-80
2023/05/28 03:24:22;;;;;;;;;;;10.80;99.90;;;;;;5073115;28;20299;-79
2023/05/28 03:26:48;;;;;;;;;;;10.80;99.90;;;;;;5076745;28;19931;-79
2023/05/28 03:29:13;;;;;;;;;;;10.80;99.90;;;;;;5043096;28;19931;-80
2023/05/28 03:31:46;;;;;;;;;;;10.80;99.90;;;;;;5077130;28;19928;-80
2023/05/28 03:34:12;;;;;;;;;;;10.80;99.90;;;;;;5074264;28;20320;-79
2023/05/28 03:36:40;;;;;;;;;;;10.80;99.90;;;;;;5055841;28;19928;-80
2023/05/28 03:39:06;;;;;;;;;;;10.90;99.90;;;;;;5060857;28;19950;-80
2023/05/28 03:41:32;;;;;;;;;;;10.80;99.90;;;;;;5042944;28;19928;-79
2023/05/28 03:43:57;;;;;;;;;;;10.80;99.90;;;;;;5076400;28;19970;-79
2023/05/28 03:46:23;;;;;;;;;;;10.80;99.90;;;;;;5059331;28;19936;-79
2023/05/28 03:48:49;;;;;;;;;;;10.80;99.90;;;;;;5077755;28;19976;-79
2023/05/28 03:51:14;;;;;;;;;;;10.80;99.90;;;;;;5077203;28;19935;-79
2023/05/28 03:53:40;;;;;;;;;;;10.90;99.90;;;;;;5073921;28;19925;-79
2023/05/28 03:56:06;;;;;;;;;;;10.90;99.90;;;;;;5075208;28;20458;-79
2023/05/28 03:58:31;;;;;;;;;;;10.90;99.90;;;;;;5072883;28;19955;-79
2023/05/28 04:00:57;;;;;;;;;;;10.90;99.90;;;;;;5073204;28;19931;-79
2023/05/28 04:03:22;;;;;;;;;;;10.90;99.90;;;;;;5059689;28;19925;-79
2023/05/28 04:05:48;;;;;;;;;;;10.90;99.90;;;;;;5077384;28;20383;-79
2023/05/28 04:08:14;;;;;;;;;;;10.90;99.90;;;;;;5056113;28;19924;-79
2023/05/28 04:10:40;;;;;;;;;;;10.90;99.90;;;;;;5056691;28;19987;-79
2023/05/28 04:13:05;;;;;;;;;;;10.90;99.90;;;;;;5040721;28;19929;-80
2023/05/28 04:15:31;;;;;;;;;;;10.90;99.90;;;;;;5072787;28;20261;-78
2023/05/28 04:17:56;;;;;;;;;;;10.90;99.90;;;;;;5057412;28;20263;-79
2023/05/28 04:20:22;;;;;;;;;;;11.00;99.90;;;;;;5039515;28;19951;-79
2023/05/28 04:22:48;;;;;;;;;;;10.90;99.90;;;;;;5057579;28;20901;-80
2023/05/28 04:25:13;;;;;;;;;;;10.90;99.90;;;;;;5056302;28;19925;-79
2023/05/28 04:27:40;;;;;;;;;;;10.90;99.90;;;;;;5040288;28;19932;-79
2023/05/28 04:30:08;;;;;;;;;;;10.90;99.90;;;;;;5061041;28;19925;-80
2023/05/28 04:32:33;;;;;;;;;;;11.00;99.90;;;;;;5045147;28;20382;-79
2023/05/28 04:35:03;;;;;;;;;;;10.90;99.90;;;;;;5062936;28;19925;-79
2023/05/28 04:37:29;;;;;;;;;;;10.90;99.90;;;;;;5045074;28;19944;-80
2023/05/28 04:39:55;;;;;;;;;;;10.90;99.90;;;;;;5045141;28;19929;-80
2023/05/28 04:42:21;;;;;;;;;;;10.90;99.90;;;;;;5058288;28;20019;-79
2023/05/28 04:44:46;;;;;;;;;;;11.00;99.90;;;;;;5082891;28;19925;-79
2023/05/28 04:47:13;;;;;;;;;;;11.00;99.90;;;;;;5060668;28;19951;-79
2023/05/28 04:49:40;;;;;;;;;;;11.10;99.90;;;;;;5060056;28;20326;-79
2023/05/28 04:52:06;;;;;;;;;;;11.20;99.90;;;;;;5061153;28;20451;-79
2023/05/28 04:54:32;;;;;;;;;;;11.50;99.90;;;;;;5058849;28;19936;-79
2023/05/28 04:56:57;;;;;;;;;;;11.70;99.90;;;;;;5077345;28;19925;-79
2023/05/28 04:59:23;;;;;;;;;;;11.80;99.90;;;;;;5042725;28;19932;-79
2023/05/28 05:01:49;;;;;;;;;;;12.00;99.90;;;;;;5043809;28;19986;-79
2023/05/28 05:04:15;;;;;;;;;;;12.20;99.90;;;;;;5060046;28;20035;-79
2023/05/28 05:06:41;;;;;;;;;;;12.40;99.90;;;;;;5090065;28;19986;-79
2023/05/28 05:09:07;;;;;;;;;;;12.70;99.90;;;;;;5063787;28;19931;-80
2023/05/28 05:11:33;;;;;;;;;;;13.20;99.90;;;;;;5075517;28;19925;-80
2023/05/28 05:13:59;;;;;;;;;;;13.60;99.90;;;;;;5054749;28;20075;-80
2023/05/28 05:16:25;;;;;;;;;;;14.00;99.90;;;;;;5062153;28;19925;-80
2023/05/28 05:18:50;;;;;;;;;;;14.40;99.90;;;;;;5080385;28;19925;-80
2023/05/28 05:21:17;;;;;;;;;;;14.70;99.90;;;;;;5046666;28;19924;-80
2023/05/28 05:23:42;;;;;;;;;;;15.20;99.90;;;;;;5079896;28;19940;-80
2023/05/28 05:26:16;;;;;;;;;;;15.50;99.90;;;;;;5063520;28;20296;-79
2023/05/28 05:28:43;;;;;;;;;;;15.80;99.90;;;;;;5061836;28;19994;-80
2023/05/28 05:31:08;;;;;;;;;;;16.00;99.90;;;;;;5063489;28;19945;-80
2023/05/28 05:33:34;;;;;;;;;;;16.20;99.90;;;;;;5078492;28;19934;-80
2023/05/28 05:36:00;;;;;;;;;;;16.20;99.90;;;;;;5046453;28;19936;-80
2023/05/28 05:38:26;;;;;;;;;;;16.10;99.90;;;;;;5062354;28;19925;-80
2023/05/28 05:40:51;;;;;;;;;;;16.10;99.90;;;;;;5061881;28;19932;-80
2023/05/28 05:43:17;;;;;;;;;;;16.10;99.90;;;;;;5076852;28;19932;-79
2023/05/28 05:45:42;;;;;;;;;;;16.40;99.90;;;;;;5058173;28;19978;-80
2023/05/28 05:48:08;;;;;;;;;;;16.70;99.90;;;;;;5076998;28;19925;-80
2023/05/28 05:50:46;;;;;;;;;;;16.90;99.90;;;;;;5072898;28;19934;-80
2023/05/28 05:53:12;;;;;;;;;;;17.00;99.90;;;;;;5062728;28;19933;-80
2023/05/28 05:55:37;;;;;;;;;;;17.10;99.90;;;;;;5076254;28;19932;-80
2023/05/28 05:58:03;;;;;;;;;;;17.20;99.90;;;;;;5062177;28;20376;-80
2023/05/28 06:00:29;;;;;;;;;;;17.40;99.90;;;;;;5063407;28;19924;-80
2023/05/28 06:02:54;;;;;;;;;;;17.50;99.90;;;;;;5061290;28;19939;-81
2023/05/28 06:05:20;;;;;;;;;;;17.80;99.90;;;;;;5079043;28;20006;-81
2023/05/28 06:07:46;;;;;;;;;;;18.10;99.90;;;;;;5077170;28;20279;-81
2023/05/28 06:10:12;;;;;;;;;;;18.30;99.90;;;;;;5050229;28;19928;-81
2023/05/28 06:12:38;;;;;;;;;;;18.50;99.90;;;;;;5059279;28;19928;-80
2023/05/28 06:15:05;;;;;;;;;;;18.40;99.90;;;;;;5048625;28;19928;-80
2023/05/28 06:17:31;;;;;;;;;;;18.40;99.90;;;;;;5066519;28;19935;-79
2023/05/28 06:19:58;;;;;;;;;;;18.60;99.90;;;;;;5059422;28;19924;-81
2023/05/28 06:22:24;;;;;;;;;;;18.60;99.90;;;;;;5073245;28;19924;-80
2023/05/28 06:24:52;;;;;;;;;;;18.80;99.90;;;;;;5064297;28;19924;-81
2023/05/28 06:27:18;;;;;;;;;;;18.80;99.90;;;;;;5065807;28;19924;-80
2023/05/28 06:29:43;;;;;;;;;;;19.00;99.90;;;;;;5081413;28;19934;-79
2023/05/28 06:32:09;;;;;;;;;;;19.10;99.90;;;;;;5048376;28;19967;-80
2023/05/28 06:34:35;;;;;;;;;;;19.20;99.90;;;;;;5065686;28;19947;-80
2023/05/28 06:37:01;;;;;;;;;;;19.30;99.90;;;;;;5080799;28;19928;-80
2023/05/28 06:39:27;;;;;;;;;;;19.40;99.90;;;;;;5065017;28;19969;-80
2023/05/28 06:41:52;;;;;;;;;;;19.30;99.90;;;;;;5064218;28;19934;-80
2023/05/28 06:44:18;;;;;;;;;;;19.30;99.90;;;;;;5060616;28;19988;-80
2023/05/28 06:46:44;;;;;;;;;;;19.30;99.90;;;;;;5071877;28;19927;-80
2023/05/28 06:49:09;;;;;;;;;;;19.50;99.90;;;;;;5064857;28;19935;-81
2023/05/28 06:51:36;;;;;;;;;;;19.50;99.90;;;;;;5050842;28;19925;-81
2023/05/28 06:54:01;;;;;;;;;;;19.30;99.90;;;;;;5059035;28;20348;-80
2023/05/28 06:56:27;;;;;;;;;;;19.30;99.90;;;;;;5065399;28;20398;-80
2023/05/28 06:58:54;;;;;;;;;;;19.30;99.90;;;;;;5052847;28;20423;-80
2023/05/28 07:01:20;;;;;;;;;;;19.30;99.90;;;;;;5080271;28;19924;-81
2023/05/28 07:03:46;;;;;;;;;;;19.30;99.90;;;;;;5044320;28;19947;-80
2023/05/28 07:06:12;;;;;;;;;;;19.60;99.90;;;;;;5077862;28;19932;-79
2023/05/28 07:08:41;;;;;;;;;;;20.10;99.90;;;;;;5064326;28;19924;-80
2023/05/28 07:11:08;;;;;;;;;;;20.40;99.20;;;;;;5080455;28;19924;-81
2023/05/28 07:13:33;;;;;;;;;;;20.50;97.70;;;;;;5081825;28;19931;-81
2023/05/28 07:15:59;;;;;;;;;;;20.70;99.00;;;;;;5046545;28;19963;-81
2023/05/28 07:18:26;;;;;;;;;;;20.90;98.00;;;;;;5060834;28;19970;-79
2023/05/28 07:20:51;;;;;;;;;;;20.90;97.80;;;;;;5072089;28;20287;-80
2023/05/28 07:23:17;;;;;;;;;;;21.10;95.10;;;;;;5064474;28;19999;-80
2023/05/28 07:25:43;;;;;;;;;;;21.20;97.10;;;;;;5064580;28;19998;-81
2023/05/28 07:28:08;;;;;;;;;;;21.00;91.80;;;;;;5063715;28;19964;-81
2023/05/28 07:30:34;;;;;;;;;;;21.10;94.10;;;;;;5064874;28;19935;-81
2023/05/28 07:32:59;;;;;;;;;;;21.40;92.70;;;;;;5079713;28;19924;-82
2023/05/28 07:35:25;;;;;;;;;;;21.60;93.80;;;;;;5064848;28;19931;-81
2023/05/28 07:37:52;;;;;;;;;;;21.70;93.90;;;;;;5051596;28;19925;-81
2023/05/28 07:40:18;;;;;;;;;;;21.90;93.90;;;;;;5061378;28;19928;-81
2023/05/28 07:42:43;;;;;;;;;;;22.10;92.70;;;;;;5060791;28;19963;-80
2023/05/28 07:45:09;;;;;;;;;;;22.20;90.70;;;;;;5055676;28;19947;-81
2023/05/28 07:47:35;;;;;;;;;;;22.30;91.60;;;;;;5058891;28;20352;-81
2023/05/28 07:50:02;;;;;;;;;;;22.40;88.50;;;;;;5052669;28;19954;-81
2023/05/28 07:52:29;;;;;;;;;;;22.60;88.90;;;;;;5058562;28;19929;-81
2023/05/28 07:54:58;;;;;;;;;;;22.70;88.20;;;;;;5047687;28;19928;-81
2023/05/28 07:57:24;;;;;;;;;;;22.70;88.50;;;;;;5059121;28;19924;-81
2023/05/28 07:59:50;;;;;;;;;;;22.70;85.10;;;;;;5060836;28;19971;-81
2023/05/28 08:02:15;;;;;;;;;;;22.70;86.60;;;;;;5063588;28;19924;-81
2023/05/28 08:04:41;;;;;;;;;;;22.70;83.20;;;;;;5070964;28;19924;-81
2023/05/28 08:07:07;;;;;;;;;;;22.70;86.30;;;;;;5069416;28;20444;-80
2023/05/28 08:09:33;;;;;;;;;;;22.70;82.10;;;;;;5066181;28;19935;-81
2023/05/28 08:12:00;;;;;;;;;;;22.80;86.80;;;;;;5054810;28;19944;-81
2023/05/28 08:14:25;;;;;;;;;;;22.90;84.30;;;;;;5065411;28;19924;-81
2023/05/28 08:16:51;;;;;;;;;;;22.90;82.10;;;;;;5053508;28;19965;-81
2023/05/28 08:19:16;;;;;;;;;;;23.00;81.30;;;;;;5079445;28;19924;-82
2023/05/28 08:21:42;;;;;;;;;;;22.90;79.30;;;;;;5054059;28;20011;-81
2023/05/28 08:24:10;;;;;;;;;;;22.80;81.90;;;;;;5052954;28;19928;-80
2023/05/28 08:26:35;;;;;;;;;;;22.70;74.90;;;;;;5070609;28;19932;-81
2023/05/28 08:29:01;;;;;;;;;;;22.70;82.60;;;;;;5054544;28;20037;-80
2023/05/28 08:31:27;;;;;;;;;;;22.70;82.10;;;;;;5098732;28;19924;-82
2023/05/28 08:33:52;;;;;;;;;;;22.70;82.40;;;;;;5070108;28;19963;-81
2023/05/28 08:36:18;;;;;;;;;;;22.70;77.80;;;;;;5059319;28;20351;-81
2023/05/28 08:38:43;;;;;;;;;;;22.60;77.00;;;;;;5085949;28;19946;-80
2023/05/28 08:41:09;;;;;;;;;;;22.80;76.60;;;;;;5052979;28;19931;-81
2023/05/28 08:43:35;;;;;;;;;;;22.90;84.10;;;;;;5080693;28;19924;-81
2023/05/28 08:46:01;;;;;;;;;;;23.00;77.60;;;;;;5069043;28;19992;-81
2023/05/28 08:48:27;;;;;;;;;;;23.10;79.90;;;;;;5070525;28;19928;-80
2023/05/28 08:50:53;;;;;;;;;;;23.20;79.40;;;;;;5065891;28;19973;-81
2023/05/28 08:53:20;;;;;;;;;;;23.20;76.70;;;;;;5055873;28;20391;-81
2023/05/28 08:55:46;;;;;;;;;;;23.20;79.80;;;;;;5099018;28;19924;-81
2023/05/28 08:58:12;;;;;;;;;;;23.20;76.70;;;;;;5069254;28;19950;-81
2023/05/28 09:00:38;;;;;;;;;;;23.10;80.00;;;;;;5060901;28;19974;-81
2023/05/28 09:03:07;;;;;;;;;;;23.20;80.30;;;;;;5084558;28;19924;-81
2023/05/28 09:05:37;;;;;;;;;;;23.20;79.00;;;;;;5058866;28;20359;-81
2023/05/28 09:08:10;;;;;;;;;;;23.20;77.40;;;;;;5101271;28;19990;-81
2023/05/28 09:10:37;;;;;;;;;;;23.20;75.00;;;;;;5057021;28;20062;-81
2023/05/28 09:13:04;;;;;;;;;;;23.50;77.10;;;;;;5101447;28;19928;-82
2023/05/28 09:15:30;;;;;;;;;;;23.50;78.40;;;;;;5045671;28;19924;-81
2023/05/28 09:17:58;;;;;;;;;;;23.60;75.20;;;;;;5063025;28;19925;-82
2023/05/28 09:20:23;;;;;;;;;;;23.70;72.80;;;;;;5065567;28;19924;-82
2023/05/28 09:22:59;;;;;;;;;;;23.80;72.80;;;;;;5057367;28;19979;-82
2023/05/28 09:25:26;;;;;;;;;;;23.90;69.90;;;;;;5053765;28;19958;-81
2023/05/28 09:27:53;;;;;;;;;;;24.00;73.70;;;;;;5066038;28;19932;-81
2023/05/28 09:30:19;;;;;;;;;;;24.10;71.00;;;;;;5083669;28;19928;-81
2023/05/28 09:32:44;;;;;;;;;;;24.20;67.50;;;;;;5053451;28;20026;-81
2023/05/28 09:35:10;;;;;;;;;;;24.30;69.20;;;;;;5080636;28;19959;-82
2023/05/28 09:37:36;;;;;;;;;;;24.20;66.10;;;;;;5065099;28;20014;-82
2023/05/28 09:40:09;;;;;;;;;;;24.20;66.00;;;;;;5049853;28;19935;-81
2023/05/28 09:42:39;;;;;;;;;;;24.20;64.50;;;;;;5066047;28;19954;-81
2023/05/28 09:45:05;;;;;;;;;;;24.20;62.50;;;;;;5082421;28;19924;-81
2023/05/28 09:47:30;;;;;;;;;;;24.20;61.10;;;;;;5063568;28;19924;-80
2023/05/28 09:49:56;;;;;;;;;;;24.10;66.20;;;;;;5098789;28;19924;-83
2023/05/28 09:52:22;;;;;;;;;;;23.90;65.10;;;;;;5059136;28;20373;-80
2023/05/28 09:54:51;;;;;;;;;;;23.90;64.90;;;;;;5064948;28;19931;-80
2023/05/28 09:57:18;;;;;;;;;;;24.00;64.50;;;;;;5056837;28;19924;-81
2023/05/28 09:59:46;;;;;;;;;;;24.10;66.60;;;;;;5065864;28;19982;-81
2023/05/28 10:02:34;;;;;;;;;;;24.20;65.30;;;;;;5065542;28;19939;-81
2023/05/28 10:05:02;;;;;;;;;;;24.20;65.60;;;;;;5066227;28;19982;-81
2023/05/28 10:07:28;;;;;;;;;;;24.10;65.40;;;;;;5064358;28;19924;-80
2023/05/28 10:09:55;;;;;;;;;;;24.10;61.80;;;;;;5061746;28;19931;-81
2023/05/28 10:12:23;;;;;;;;;;;24.20;60.80;;;;;;5056905;28;20325;-81
2023/05/28 10:14:48;;;;;;;;;;;24.30;66.10;;;;;;5065243;28;19928;-80
2023/05/28 10:17:16;;;;;;;;;;;24.40;66.50;;;;;;5052394;28;19924;-81
2023/05/28 10:19:43;;;;;;;;;;;24.40;62.70;;;;;;5060858;28;19924;-82
2023/05/28 10:22:08;;;;;;;;;;;24.50;62.60;;;;;;5066198;28;20061;-81
2023/05/28 10:24:34;;;;;;;;;;;24.30;62.50;;;;;;5064101;28;20404;-82
2023/05/28 10:27:03;;;;;;;;;;;24.30;64.60;;;;;;5065730;28;19928;-83
2023/05/28 10:29:37;;;;;;;;;;;24.30;58.90;;;;;;5065250;28;19924;-81
2023/05/28 10:32:04;;;;;;;;;;;24.40;58.50;;;;;;5064892;28;19928;-82
2023/05/28 10:34:31;;;;;;;;;;;24.50;64.00;;;;;;5065535;28;20014;-81
2023/05/28 10:36:59;;;;;;;;;;;24.60;64.80;;;;;;5064009;28;19924;-81
2023/05/28 10:39:25;;;;;;;;;;;24.50;61.40;;;;;;5065077;28;19924;-81
2023/05/28 10:41:51;;;;;;;;;;;24.50;58.20;;;;;;5080783;28;19950;-81
2023/05/28 10:44:18;;;;;;;;;;;24.40;59.70;;;;;;5060485;28;20000;-80
2023/05/28 10:46:44;;;;;;;;;;;24.50;59.90;;;;;;5088636;28;20008;-80
2023/05/28 10:49:12;;;;;;;;;;;24.60;63.00;;;;;;5060542;28;20383;-73
2023/05/28 10:51:44;;;;;;;;;;;24.70;58.20;;;;;;5065658;28;20013;-74
2023/05/28 10:54:20;;;;;;;;;;;24.80;59.10;;;;;;5061870;28;19959;-74
2023/05/28 10:57:09;;;;;;;;;;;24.60;56.40;;;;;;5061695;28;19924;-76
2023/05/28 10:59:40;;;;;;;;;;;24.30;58.50;;;;;;5063096;28;19930;-75
2023/05/28 11:02:07;;;;;;;;;;;24.20;57.20;;;;;;5090799;28;19924;-76
2023/05/28 11:04:33;;;;;;;;;;;24.10;57.60;;;;;;5076404;28;19983;-74
2023/05/28 11:06:59;;;;;;;;;;;24.20;56.60;;;;;;5055493;28;19928;-74
2023/05/28 11:09:25;;;;;;;;;;;24.40;54.80;;;;;;5057526;28;19956;-76
2023/05/28 11:11:51;;;;;;;;;;;24.50;55.50;;;;;;5079014;28;20011;-75
2023/05/28 11:14:16;;;;;;;;;;;24.60;55.30;;;;;;5060980;28;19939;-80
2023/05/28 11:16:42;;;;;;;;;;;24.70;56.90;;;;;;5060759;28;19943;-74
2023/05/28 11:19:08;;;;;;;;;;;24.70;54.70;;;;;;5045271;28;19931;-70
2023/05/28 11:21:48;;;;;;;;;;;24.80;57.90;;;;;;5071637;28;19936;-74
2023/05/28 11:24:14;;;;;;;;;;;24.80;52.90;;;;;;5056354;28;19944;-73
2023/05/28 11:26:40;;;;;;;;;;;24.90;53.70;;;;;;5090830;28;19932;-80
2023/05/28 11:29:06;;;;;;;;;;;24.90;54.00;;;;;;5057341;28;19932;-80
2023/05/28 11:31:41;;;;;;;;;;;24.90;53.00;;;;;;5075737;28;19925;-80
2023/05/28 11:34:07;;;;;;;;;;;24.80;51.40;;;;;;5077515;28;19931;-80
2023/05/28 11:36:43;;;;;;;;;;;24.90;51.50;;;;;;5059882;28;19932;-80
2023/05/28 11:39:09;;;;;;;;;;;24.80;52.30;;;;;;5060220;28;19931;-80
2023/05/28 11:41:34;;;;;;;;;;;24.90;52.60;;;;;;5059879;28;20016;-80
2023/05/28 11:44:00;;;;;;;;;;;24.90;53.30;;;;;;5076646;28;20381;-82
2023/05/28 11:46:25;;;;;;;;;;;25.00;53.40;;;;;;5073152;28;19931;-81
2023/05/28 11:48:51;;;;;;;;;;;24.90;53.00;;;;;;5076928;28;20007;-81
2023/05/28 11:51:20;;;;;;;;;;;24.70;50.60;;;;;;5044139;28;19959;-80
2023/05/28 11:53:46;;;;;;;;;;;24.70;52.00;;;;;;5059983;28;19928;-81
2023/05/28 11:56:12;;;;;;;;;;;24.70;51.70;;;;;;5061129;28;19981;-81
2023/05/28 11:58:40;;;;;;;;;;;24.80;51.70;;;;;;5039794;28;19925;-81
2023/05/28 12:01:06;;;;;;;;;;;24.80;53.20;;;;;;5091331;28;19932;-81
2023/05/28 12:03:31;;;;;;;;;;;24.80;51.40;;;;;;5059826;28;19928;-81
2023/05/28 12:05:57;;;;;;;;;;;24.90;53.10;;;;;;5076109;28;20380;-82
2023/05/28 12:08:23;;;;;;;;;;;24.80;50.90;;;;;;5064169;28;19931;-80
2023/05/28 12:10:48;;;;;;;;;;;24.80;53.20;;;;;;5063340;28;20334;-81
2023/05/28 12:13:14;;;;;;;;;;;24.70;51.80;;;;;;5064521;28;20536;-80
2023/05/28 12:15:40;;;;;;;;;;;24.80;50.90;;;;;;5079243;28;19928;-80
2023/05/28 12:18:06;;;;;;;;;;;24.80;51.50;;;;;;5063899;28;20391;-81
2023/05/28 12:20:41;;;;;;;;;;;25.00;51.10;;;;;;5048444;28;20388;-81
2023/05/28 12:23:08;;;;;;;;;;;25.00;50.10;;;;;;5093614;28;19924;-81
2023/05/28 12:25:43;;;;;;;;;;;24.90;49.20;;;;;;5063919;28;19924;-81
2023/05/28 12:28:09;;;;;;;;;;;24.90;48.30;;;;;;5062482;28;19935;-81
2023/05/28 12:30:35;;;;;;;;;;;25.00;49.60;;;;;;5064241;28;19924;-80
2023/05/28 12:33:01;;;;;;;;;;;25.00;48.40;;;;;;5052655;28;19978;-81
2023/05/28 12:35:26;;;;;;;;;;;25.00;49.70;;;;;;5097018;28;19924;-81
2023/05/28 12:37:52;;;;;;;;;;;25.00;50.10;;;;;;5051393;28;19979;-81
2023/05/28 12:40:17;;;;;;;;;;;25.00;49.30;;;;;;5060792;28;20407;-82
2023/05/28 12:42:43;;;;;;;;;;;24.90;48.40;;;;;;5063376;28;19924;-81
2023/05/28 12:45:09;;;;;;;;;;;24.70;47.80;;;;;;5063145;28;19924;-80
2023/05/28 12:47:34;;;;;;;;;;;24.50;47.30;;;;;;5064298;28;19924;-81
2023/05/28 12:50:00;;;;;;;;;;;24.50;45.30;;;;;;5050601;28;20471;-81
2023/05/28 12:52:26;;;;;;;;;;;24.50;46.80;;;;;;5079920;28;19931;-79
2023/05/28 12:54:51;;;;;;;;;;;24.50;47.10;;;;;;5066281;28;19991;-80
2023/05/28 12:57:17;;;;;;;;;;;24.50;47.00;;;;;;5067162;28;19984;-80
2023/05/28 12:59:42;;;;;;;;;;;24.50;46.70;;;;;;5063343;28;19935;-81
2023/05/28 13:02:08;;;;;;;;;;;24.50;46.20;;;;;;5074682;28;20394;-79
2023/05/28 13:04:33;;;;;;;;;;;24.50;49.60;;;;;;5061568;28;19956;-80
2023/05/28 13:06:59;;;;;;;;;;;24.60;49.20;;;;;;5071754;28;19931;-80
2023/05/28 13:09:25;;;;;;;;;;;24.60;48.30;;;;;;5060456;28;19971;-80
2023/05/28 13:11:51;;;;;;;;;;;24.50;48.10;;;;;;5050501;28;19925;-80
2023/05/28 13:14:16;;;;;;;;;;;24.50;49.10;;;;;;5060892;28;19971;-80
2023/05/28 13:16:42;;;;;;;;;;;24.40;50.50;;;;;;5069225;28;20362;-80
2023/05/28 13:19:07;;;;;;;;;;;24.50;47.90;;;;;;5075000;28;19955;-79
2023/05/28 13:21:35;;;;;;;;;;;24.50;45.80;;;;;;5064208;28;19928;-78
2023/05/28 13:24:01;;;;;;;;;;;24.50;47.00;;;;;;5065680;28;19925;-79
2023/05/28 13:26:28;;;;;;;;;;;24.60;47.70;;;;;;5067141;28;19928;-79
2023/05/28 13:28:54;;;;;;;;;;;24.60;45.50;;;;;;5073502;28;19923;-79
2023/05/28 13:31:20;;;;;;;;;;;24.60;48.70;;;;;;5073055;28;20348;-79
2023/05/28 13:33:45;;;;;;;;;;;24.60;48.20;;;;;;5049393;28;19931;-79
2023/05/28 13:36:11;;;;;;;;;;;24.60;47.50;;;;;;5054829;28;20304;-80
2023/05/28 13:38:37;;;;;;;;;;;24.50;46.20;;;;;;5081487;28;19971;-80
2023/05/28 13:41:03;;;;;;;;;;;24.40;47.50;;;;;;5061677;28;19928;-81
2023/05/28 13:43:29;;;;;;;;;;;24.40;48.00;;;;;;5075346;28;19924;-79
2023/05/28 13:45:54;;;;;;;;;;;24.30;47.50;;;;;;5081747;28;19947;-79
2023/05/28 13:48:20;;;;;;;;;;;24.30;48.30;;;;;;5053160;28;19924;-79
2023/05/28 13:50:46;;;;;;;;;;;24.30;47.70;;;;;;5061343;28;19971;-79
2023/05/28 13:53:11;;;;;;;;;;;24.30;48.00;;;;;;5101212;28;19924;-80
2023/05/28 13:55:37;;;;;;;;;;;24.40;48.70;;;;;;5066253;28;19923;-80
2023/05/28 13:58:02;;;;;;;;;;;24.30;49.20;;;;;;5065075;28;19951;-79
2023/05/28 14:00:28;;;;;;;;;;;24.30;50.40;;;;;;5046352;28;19924;-79
2023/05/28 14:02:54;;;;;;;;;;;24.30;51.60;;;;;;5078963;28;19963;-79
2023/05/28 14:05:19;;;;;;;;;;;24.30;52.00;;;;;;5076042;28;19923;-80
2023/05/28 14:07:45;;;;;;;;;;;24.20;52.50;;;;;;5085531;28;19924;-80
2023/05/28 14:10:11;;;;;;;;;;;24.10;52.60;;;;;;5065540;28;19928;-80
2023/05/28 14:12:36;;;;;;;;;;;24.00;53.60;;;;;;5049002;28;19971;-79